sensor_id;sensor_type;location;lat;lon;timestamp;temperature;humidity
14995;DHT22;7593;49.006;8.372;2024-03-08T00:01:45;5.70;99.90
14995;DHT22;7593;49.006;8.372;2024-03-08T00:04:12;5.70;99.90
14995;DHT22;7593;49.006;8.372;2024-03-08T00:06:38;5.60;99.90
14995;DHT22;7593;49.006;8.372;2024-03-08T00:09:07;5.60;99.90
14995;DHT22;7593;49.006;8.372;2024-03-08T00:11:34;5.60;99.90
14995;DHT22;7593;49.006;8.372;2024-03-08T00:14:01;5.60;99.90
14995;DHT22;7593;49.006;8.372;2024-03-08T00:16:28;5.50;99.90
14995;DHT22;7593;49.006;8.372;2024-03-08T00:18:54;5.50;99.90
14995;DHT22;7593;49.006;8.372;2024-03-08T00:21:21;5.50;99.90
14995;DHT22;7593;49.006;8.372;2024-03-08T00:23:48;5.50;99.90
14995;DHT22;7593;49.006;8.372;2024-03-08T00:26:16;5.40;99.90
14995;DHT22;7593;49.006;8.372;2024-03-08T00:28:42;5.40;99.90
14995;DHT22;7593;49.006;8.372;2024-03-08T00:31:09;5.30;99.90
14995;DHT22;7593;49.006;8.372;2024-03-08T00:33:36;5.40;99.90
14995;DHT22;7593;49.006;8.372;2024-03-08T00:36:03;5.30;99.90
14995;DHT22;7593;49.006;8.372;2024-03-08T00:38:30;5.30;99.90
14995;DHT22;7593;49.006;8.372;2024-03-08T00:40:57;5.30;99.90
14995;DHT22;7593;49.006;8.372;2024-03-08T00:43:25;5.30;99.90
14995;DHT22;7593;49.006;8.372;2024-03-08T00:45:52;5.20;99.90
14995;DHT22;7593;49.006;8.372;2024-03-08T00:48:18;5.20;99.90
14995;DHT22;7593;49.006;8.372;2024-03-08T00:50:46;5.20;99.90
14995;DHT22;7593;49.006;8.372;2024-03-08T00:53:13;5.10;99.90
14995;DHT22;7593;49.006;8.372;2024-03-08T00:55:40;5.10;99.90
14995;DHT22;7593;49.006;8.372;2024-03-08T00:58:07;5.10;99.90
14995;DHT22;7593;49.006;8.372;2024-03-08T01:00:36;5.10;99.90
14995;DHT22;7593;49.006;8.372;2024-03-08T01:03:06;5.00;99.90
14995;DHT22;7593;49.006;8.372;2024-03-08T01:05:32;5.00;99.90
14995;DHT22;7593;49.006;8.372;2024-03-08T01:08:00;5.00;99.90
14995;DHT22;7593;49.006;8.372;2024-03-08T01:10:30;4.90;99.90
14995;DHT22;7593;49.006;8.372;2024-03-08T01:12:57;4.90;99.90
14995;DHT22;7593;49.006;8.372;2024-03-08T01:15:25;4.90;99.90
14995;DHT22;7593;49.006;8.372;2024-03-08T01:17:56;4.90;99.90
14995;DHT22;7593;49.006;8.372;2024-03-08T01:20:24;4.80;99.90
14995;DHT22;7593;49.006;8.372;2024-03-08T01:22:51;4.80;99.90
14995;DHT22;7593;49.006;8.372;2024-03-08T01:25:18;4.80;99.90
14995;DHT22;7593;49.006;8.372;2024-03-08T01:27:45;4.70;99.90
14995;DHT22;7593;49.006;8.372;2024-03-08T01:30:14;4.70;99.90
14995;DHT22;7593;49.006;8.372;2024-03-08T01:32:41;4.70;99.90
14995;DHT22;7593;49.006;8.372;2024-03-08T01:35:10;4.60;99.90
14995;DHT22;7593;49.006;8.372;2024-03-08T01:37:37;4.60;99.90
14995;DHT22;7593;49.006;8.372;2024-03-08T01:40:05;4.60;99.90
14995;DHT22;7593;49.006;8.372;2024-03-08T01:42:32;4.50;99.90
14995;DHT22;7593;49.006;8.372;2024-03-08T01:44:59;4.50;99.90
14995;DHT22;7593;49.006;8.372;2024-03-08T01:47:26;4.50;99.90
14995;DHT22;7593;49.006;8.372;2024-03-08T01:49:53;4.50;99.90
14995;DHT22;7593;49.006;8.372;2024-03-08T01:52:21;4.40;99.90
14995;DHT22;7593;49.006;8.372;2024-03-08T01:54:49;4.40;99.90
14995;DHT22;7593;49.006;8.372;2024-03-08T01:57:16;4.40;99.90
14995;DHT22;7593;49.006;8.372;2024-03-08T01:59:44;4.40;99.90
14995;DHT22;7593;49.006;8.372;2024-03-08T02:02:11;4.40;99.90
14995;DHT22;7593;49.006;8.372;2024-03-08T02:04:41;4.30;99.90
14995;DHT22;7593;49.006;8.372;2024-03-08T02:07:08;4.30;99.90
14995;DHT22;7593;49.006;8.372;2024-03-08T02:09:36;4.30;99.90
14995;DHT22;7593;49.006;8.372;2024-03-08T02:12:03;4.30;99.90
14995;DHT22;7593;49.006;8.372;2024-03-08T02:14:30;4.20;99.90
14995;DHT22;7593;49.006;8.372;2024-03-08T02:17:00;4.20;99.90
14995;DHT22;7593;49.006;8.372;2024-03-08T02:19:27;4.20;99.90
14995;DHT22;7593;49.006;8.372;2024-03-08T02:21:55;4.20;99.90
14995;DHT22;7593;49.006;8.372;2024-03-08T02:24:22;4.10;99.90
14995;DHT22;7593;49.006;8.372;2024-03-08T02:26:51;4.10;99.90
14995;DHT22;7593;49.006;8.372;2024-03-08T02:29:19;4.10;99.90
14995;DHT22;7593;49.006;8.372;2024-03-08T02:31:47;4.20;99.90
14995;DHT22;7593;49.006;8.372;2024-03-08T02:34:13;4.10;99.90
14995;DHT22;7593;49.006;8.372;2024-03-08T02:36:40;4.00;99.90
14995;DHT22;7593;49.006;8.372;2024-03-08T02:39:08;4.00;99.90
14995;DHT22;7593;49.006;8.372;2024-03-08T02:41:36;4.00;99.90
14995;DHT22;7593;49.006;8.372;2024-03-08T02:44:03;4.00;99.90
14995;DHT22;7593;49.006;8.372;2024-03-08T02:46:30;3.90;99.90
14995;DHT22;7593;49.006;8.372;2024-03-08T02:48:57;3.90;99.90
14995;DHT22;7593;49.006;8.372;2024-03-08T02:51:24;3.90;99.90
14995;DHT22;7593;49.006;8.372;2024-03-08T02:53:51;3.90;99.90
14995;DHT22;7593;49.006;8.372;2024-03-08T02:56:19;3.80;99.90
14995;DHT22;7593;49.006;8.372;2024-03-08T02:58:47;3.80;99.90
14995;DHT22;7593;49.006;8.372;2024-03-08T03:01:14;3.80;99.90
14995;DHT22;7593;49.006;8.372;2024-03-08T03:03:41;3.80;99.90
14995;DHT22;7593;49.006;8.372;2024-03-08T03:06:08;3.80;99.90
14995;DHT22;7593;49.006;8.372;2024-03-08T03:08:35;3.80;99.90
14995;DHT22;7593;49.006;8.372;2024-03-08T03:11:02;3.70;99.90
14995;DHT22;7593;49.006;8.372;2024-03-08T03:13:30;3.70;99.90
14995;DHT22;7593;49.006;8.372;2024-03-08T03:15:56;3.70;99.90
14995;DHT22;7593;49.006;8.372;2024-03-08T03:18:24;3.70;99.90
14995;DHT22;7593;49.006;8.372;2024-03-08T03:20:52;3.70;99.90
14995;DHT22;7593;49.006;8.372;2024-03-08T03:23:19;3.60;99.90
14995;DHT22;7593;49.006;8.372;2024-03-08T03:25:46;3.60;99.90
14995;DHT22;7593;49.006;8.372;2024-03-08T03:28:13;3.60;99.90
14995;DHT22;7593;49.006;8.372;2024-03-08T03:30:45;3.60;99.90
14995;DHT22;7593;49.006;8.372;2024-03-08T03:33:12;3.50;99.90
14995;DHT22;7593;49.006;8.372;2024-03-08T03:35:40;3.50;99.90
14995;DHT22;7593;49.006;8.372;2024-03-08T03:38:08;3.50;99.90
14995;DHT22;7593;49.006;8.372;2024-03-08T03:40:36;3.50;99.90
14995;DHT22;7593;49.006;8.372;2024-03-08T03:43:03;3.50;99.90
14995;DHT22;7593;49.006;8.372;2024-03-08T03:45:31;3.50;99.90
14995;DHT22;7593;49.006;8.372;2024-03-08T03:48:02;3.40;99.90
14995;DHT22;7593;49.006;8.372;2024-03-08T03:50:29;3.40;99.90
14995;DHT22;7593;49.006;8.372;2024-03-08T03:52:56;3.40;99.90
14995;DHT22;7593;49.006;8.372;2024-03-08T03:55:22;3.40;99.90
14995;DHT22;7593;49.006;8.372;2024-03-08T03:57:49;3.30;99.90
14995;DHT22;7593;49.006;8.372;2024-03-08T04:00:16;3.30;99.90
14995;DHT22;7593;49.006;8.372;2024-03-08T04:02:43;3.30;99.90
14995;DHT22;7593;49.006;8.372;2024-03-08T04:05:12;3.30;99.90
14995;DHT22;7593;49.006;8.372;2024-03-08T04:07:39;3.30;99.90
14995;DHT22;7593;49.006;8.372;2024-03-08T04:10:07;3.30;99.90
14995;DHT22;7593;49.006;8.372;2024-03-08T04:12:35;3.20;99.90
14995;DHT22;7593;49.006;8.372;2024-03-08T04:15:03;3.20;99.90
14995;DHT22;7593;49.006;8.372;2024-03-08T04:17:30;3.20;99.90
14995;DHT22;7593;49.006;8.372;2024-03-08T04:19:57;3.20;99.90
14995;DHT22;7593;49.006;8.372;2024-03-08T04:22:25;3.20;99.90
14995;DHT22;7593;49.006;8.372;2024-03-08T04:24:54;3.10;99.90
14995;DHT22;7593;49.006;8.372;2024-03-08T04:27:20;3.10;99.90
14995;DHT22;7593;49.006;8.372;2024-03-08T04:29:47;3.10;99.90
14995;DHT22;7593;49.006;8.372;2024-03-08T04:32:14;3.00;99.90
14995;DHT22;7593;49.006;8.372;2024-03-08T04:34:40;3.10;99.90
14995;DHT22;7593;49.006;8.372;2024-03-08T04:37:07;3.10;99.90
14995;DHT22;7593;49.006;8.372;2024-03-08T04:39:37;3.00;99.90
14995;DHT22;7593;49.006;8.372;2024-03-08T04:42:05;3.00;99.90
14995;DHT22;7593;49.006;8.372;2024-03-08T04:44:35;3.00;99.90
14995;DHT22;7593;49.006;8.372;2024-03-08T04:47:02;3.00;99.90
14995;DHT22;7593;49.006;8.372;2024-03-08T04:49:31;3.00;99.90
14995;DHT22;7593;49.006;8.372;2024-03-08T04:52:00;3.00;99.90
14995;DHT22;7593;49.006;8.372;2024-03-08T04:54:28;2.90;99.90
14995;DHT22;7593;49.006;8.372;2024-03-08T04:56:56;3.00;99.90
14995;DHT22;7593;49.006;8.372;2024-03-08T04:59:23;2.90;99.90
14995;DHT22;7593;49.006;8.372;2024-03-08T05:01:50;2.90;99.90
14995;DHT22;7593;49.006;8.372;2024-03-08T05:04:17;2.90;99.90
14995;DHT22;7593;49.006;8.372;2024-03-08T05:06:43;2.80;99.90
14995;DHT22;7593;49.006;8.372;2024-03-08T05:09:10;2.90;99.90
14995;DHT22;7593;49.006;8.372;2024-03-08T05:11:40;2.90;99.90
14995;DHT22;7593;49.006;8.372;2024-03-08T05:14:09;2.90;99.90
14995;DHT22;7593;49.006;8.372;2024-03-08T05:16:36;2.90;99.90
14995;DHT22;7593;49.006;8.372;2024-03-08T05:19:03;2.80;99.90
14995;DHT22;7593;49.006;8.372;2024-03-08T05:21:29;2.80;99.90
14995;DHT22;7593;49.006;8.372;2024-03-08T05:23:56;2.80;99.90
14995;DHT22;7593;49.006;8.372;2024-03-08T05:26:23;2.80;99.90
14995;DHT22;7593;49.006;8.372;2024-03-08T05:28:49;2.80;99.90
14995;DHT22;7593;49.006;8.372;2024-03-08T05:31:20;2.80;99.90
14995;DHT22;7593;49.006;8.372;2024-03-08T05:33:48;2.80;99.90
14995;DHT22;7593;49.006;8.372;2024-03-08T05:36:15;2.80;99.90
14995;DHT22;7593;49.006;8.372;2024-03-08T05:38:42;2.80;99.90
14995;DHT22;7593;49.006;8.372;2024-03-08T05:41:09;2.80;99.90
14995;DHT22;7593;49.006;8.372;2024-03-08T05:43:37;2.80;99.90
14995;DHT22;7593;49.006;8.372;2024-03-08T05:46:04;2.70;99.90
14995;DHT22;7593;49.006;8.372;2024-03-08T05:48:32;2.80;99.90
14995;DHT22;7593;49.006;8.372;2024-03-08T05:51:00;2.80;99.90
14995;DHT22;7593;49.006;8.372;2024-03-08T05:53:27;2.80;99.90
14995;DHT22;7593;49.006;8.372;2024-03-08T05:55:57;2.70;99.90
14995;DHT22;7593;49.006;8.372;2024-03-08T05:58:23;2.70;99.90
14995;DHT22;7593;49.006;8.372;2024-03-08T06:00:50;2.80;99.90
14995;DHT22;7593;49.006;8.372;2024-03-08T06:03:17;2.80;99.90
14995;DHT22;7593;49.006;8.372;2024-03-08T06:05:48;2.80;99.90
14995;DHT22;7593;49.006;8.372;2024-03-08T06:08:15;2.80;99.90
14995;DHT22;7593;49.006;8.372;2024-03-08T06:10:42;2.80;99.90
14995;DHT22;7593;49.006;8.372;2024-03-08T06:13:09;2.80;99.90
14995;DHT22;7593;49.006;8.372;2024-03-08T06:15:37;2.70;99.90
14995;DHT22;7593;49.006;8.372;2024-03-08T06:18:04;2.80;99.90
14995;DHT22;7593;49.006;8.372;2024-03-08T06:20:31;2.80;99.90
14995;DHT22;7593;49.006;8.372;2024-03-08T06:22:59;2.80;99.90
14995;DHT22;7593;49.006;8.372;2024-03-08T06:25:26;2.80;99.90
14995;DHT22;7593;49.006;8.372;2024-03-08T06:27:53;2.80;99.90
14995;DHT22;7593;49.006;8.372;2024-03-08T06:30:20;2.80;99.90
14995;DHT22;7593;49.006;8.372;2024-03-08T06:32:47;2.80;99.90
14995;DHT22;7593;49.006;8.372;2024-03-08T06:35:14;2.90;99.90
14995;DHT22;7593;49.006;8.372;2024-03-08T06:37:41;2.90;99.90
14995;DHT22;7593;49.006;8.372;2024-03-08T06:40:11;2.90;99.90
14995;DHT22;7593;49.006;8.372;2024-03-08T06:42:40;3.00;99.90
14995;DHT22;7593;49.006;8.372;2024-03-08T06:45:07;3.10;99.90
14995;DHT22;7593;49.006;8.372;2024-03-08T06:47:35;3.30;99.90
14995;DHT22;7593;49.006;8.372;2024-03-08T06:50:02;3.40;99.90
14995;DHT22;7593;49.006;8.372;2024-03-08T06:52:29;3.50;99.90
14995;DHT22;7593;49.006;8.372;2024-03-08T06:54:56;3.50;99.90
14995;DHT22;7593;49.006;8.372;2024-03-08T06:57:24;3.50;99.90
14995;DHT22;7593;49.006;8.372;2024-03-08T06:59:51;3.50;99.90
14995;DHT22;7593;49.006;8.372;2024-03-08T07:02:19;3.50;99.90
14995;DHT22;7593;49.006;8.372;2024-03-08T07:04:49;3.70;99.90
14995;DHT22;7593;49.006;8.372;2024-03-08T07:07:16;3.80;99.90
14995;DHT22;7593;49.006;8.372;2024-03-08T07:09:46;4.20;99.90
14995;DHT22;7593;49.006;8.372;2024-03-08T07:12:15;4.40;99.90
14995;DHT22;7593;49.006;8.372;2024-03-08T07:14:43;4.70;99.90
14995;DHT22;7593;49.006;8.372;2024-03-08T07:17:11;5.00;99.90
14995;DHT22;7593;49.006;8.372;2024-03-08T07:19:38;5.20;99.90
14995;DHT22;7593;49.006;8.372;2024-03-08T07:22:04;5.30;99.90
14995;DHT22;7593;49.006;8.372;2024-03-08T07:24:34;5.50;99.90
14995;DHT22;7593;49.006;8.372;2024-03-08T07:27:16;5.60;99.90
14995;DHT22;7593;49.006;8.372;2024-03-08T07:29:44;5.80;99.90
14995;DHT22;7593;49.006;8.372;2024-03-08T07:32:11;6.00;99.90
14995;DHT22;7593;49.006;8.372;2024-03-08T07:34:47;6.10;99.90
14995;DHT22;7593;49.006;8.372;2024-03-08T07:37:14;6.20;99.90
14995;DHT22;7593;49.006;8.372;2024-03-08T07:39:41;6.40;99.90
14995;DHT22;7593;49.006;8.372;2024-03-08T07:42:08;6.70;99.90
14995;DHT22;7593;49.006;8.372;2024-03-08T07:44:36;6.80;99.90
14995;DHT22;7593;49.006;8.372;2024-03-08T07:47:04;7.00;99.90
14995;DHT22;7593;49.006;8.372;2024-03-08T07:49:34;7.10;99.90
14995;DHT22;7593;49.006;8.372;2024-03-08T07:52:02;7.20;99.90
14995;DHT22;7593;49.006;8.372;2024-03-08T07:54:29;7.10;99.90
14995;DHT22;7593;49.006;8.372;2024-03-08T07:56:56;7.30;99.90
14995;DHT22;7593;49.006;8.372;2024-03-08T07:59:23;7.40;99.90
14995;DHT22;7593;49.006;8.372;2024-03-08T08:01:50;7.30;99.90
14995;DHT22;7593;49.006;8.372;2024-03-08T08:04:18;7.20;99.90
14995;DHT22;7593;49.006;8.372;2024-03-08T08:06:50;7.00;99.90
14995;DHT22;7593;49.006;8.372;2024-03-08T08:09:16;7.00;99.90
14995;DHT22;7593;49.006;8.372;2024-03-08T08:11:54;6.90;99.90
14995;DHT22;7593;49.006;8.372;2024-03-08T08:14:20;7.00;99.90
14995;DHT22;7593;49.006;8.372;2024-03-08T08:16:47;7.00;99.90
14995;DHT22;7593;49.006;8.372;2024-03-08T08:19:18;7.10;99.90
14995;DHT22;7593;49.006;8.372;2024-03-08T08:21:46;7.20;99.90
14995;DHT22;7593;49.006;8.372;2024-03-08T08:24:12;7.10;99.90
14995;DHT22;7593;49.006;8.372;2024-03-08T08:26:40;7.10;99.90
14995;DHT22;7593;49.006;8.372;2024-03-08T08:29:06;7.20;99.90
14995;DHT22;7593;49.006;8.372;2024-03-08T08:31:33;7.30;99.90
14995;DHT22;7593;49.006;8.372;2024-03-08T08:34:00;7.40;99.90
14995;DHT22;7593;49.006;8.372;2024-03-08T08:36:29;7.60;99.90
14995;DHT22;7593;49.006;8.372;2024-03-08T08:38:57;7.70;99.90
14995;DHT22;7593;49.006;8.372;2024-03-08T08:41:25;7.40;99.90
14995;DHT22;7593;49.006;8.372;2024-03-08T08:43:52;7.40;99.90
14995;DHT22;7593;49.006;8.372;2024-03-08T08:46:19;7.50;99.90
14995;DHT22;7593;49.006;8.372;2024-03-08T08:48:47;7.60;99.90
14995;DHT22;7593;49.006;8.372;2024-03-08T08:51:14;7.70;99.90
14995;DHT22;7593;49.006;8.372;2024-03-08T08:53:42;7.70;99.90
14995;DHT22;7593;49.006;8.372;2024-03-08T08:56:11;7.60;99.90
14995;DHT22;7593;49.006;8.372;2024-03-08T08:58:38;7.60;99.90
14995;DHT22;7593;49.006;8.372;2024-03-08T09:01:06;7.80;99.90
14995;DHT22;7593;49.006;8.372;2024-03-08T09:03:33;7.80;99.90
14995;DHT22;7593;49.006;8.372;2024-03-08T09:06:00;7.90;99.90
14995;DHT22;7593;49.006;8.372;2024-03-08T09:08:28;7.90;99.90
14995;DHT22;7593;49.006;8.372;2024-03-08T09:10:56;8.10;99.90
14995;DHT22;7593;49.006;8.372;2024-03-08T09:13:25;8.30;99.90
14995;DHT22;7593;49.006;8.372;2024-03-08T09:15:51;8.30;99.90
14995;DHT22;7593;49.006;8.372;2024-03-08T09:18:19;8.30;99.90
14995;DHT22;7593;49.006;8.372;2024-03-08T09:20:45;8.30;99.90
14995;DHT22;7593;49.006;8.372;2024-03-08T09:23:12;8.40;99.90
14995;DHT22;7593;49.006;8.372;2024-03-08T09:25:40;8.40;99.90
14995;DHT22;7593;49.006;8.372;2024-03-08T09:28:08;8.40;99.90
14995;DHT22;7593;49.006;8.372;2024-03-08T09:30:37;8.40;99.90
14995;DHT22;7593;49.006;8.372;2024-03-08T09:33:04;8.60;99.90
14995;DHT22;7593;49.006;8.372;2024-03-08T09:35:31;8.40;99.90
14995;DHT22;7593;49.006;8.372;2024-03-08T09:37:58;8.40;99.90
14995;DHT22;7593;49.006;8.372;2024-03-08T09:40:24;8.30;99.90
14995;DHT22;7593;49.006;8.372;2024-03-08T09:42:52;8.30;99.90
14995;DHT22;7593;49.006;8.372;2024-03-08T09:45:22;8.40;99.90
14995;DHT22;7593;49.006;8.372;2024-03-08T09:47:50;8.60;99.90
14995;DHT22;7593;49.006;8.372;2024-03-08T09:50:18;8.80;99.90
14995;DHT22;7593;49.006;8.372;2024-03-08T09:52:48;8.90;99.90
14995;DHT22;7593;49.006;8.372;2024-03-08T09:55:16;8.90;99.90
14995;DHT22;7593;49.006;8.372;2024-03-08T09:57:48;8.90;99.90
14995;DHT22;7593;49.006;8.372;2024-03-08T10:00:30;8.70;99.90
14995;DHT22;7593;49.006;8.372;2024-03-08T10:03:00;8.50;99.90
14995;DHT22;7593;49.006;8.372;2024-03-08T10:05:27;8.40;99.90
14995;DHT22;7593;49.006;8.372;2024-03-08T10:07:54;8.40;99.90
14995;DHT22;7593;49.006;8.372;2024-03-08T10:10:21;8.50;99.90
14995;DHT22;7593;49.006;8.372;2024-03-08T10:12:48;8.60;99.90
14995;DHT22;7593;49.006;8.372;2024-03-08T10:15:16;8.60;99.90
14995;DHT22;7593;49.006;8.372;2024-03-08T10:17:44;8.80;99.90
14995;DHT22;7593;49.006;8.372;2024-03-08T10:20:14;9.00;99.90
14995;DHT22;7593;49.006;8.372;2024-03-08T10:22:41;9.10;99.90
14995;DHT22;7593;49.006;8.372;2024-03-08T10:25:10;9.20;99.90
14995;DHT22;7593;49.006;8.372;2024-03-08T10:27:38;9.20;99.90
14995;DHT22;7593;49.006;8.372;2024-03-08T10:30:07;9.60;99.90
14995;DHT22;7593;49.006;8.372;2024-03-08T10:32:35;9.90;99.90
14995;DHT22;7593;49.006;8.372;2024-03-08T10:35:03;10.00;99.50
14995;DHT22;7593;49.006;8.372;2024-03-08T10:37:30;10.30;99.30
14995;DHT22;7593;49.006;8.372;2024-03-08T10:40:02;10.40;98.70
14995;DHT22;7593;49.006;8.372;2024-03-08T10:42:38;10.40;98.80
14995;DHT22;7593;49.006;8.372;2024-03-08T10:45:11;10.50;98.50
14995;DHT22;7593;49.006;8.372;2024-03-08T10:47:43;10.40;98.30
14995;DHT22;7593;49.006;8.372;2024-03-08T10:50:18;10.20;98.30
14995;DHT22;7593;49.006;8.372;2024-03-08T10:52:48;10.10;98.70
14995;DHT22;7593;49.006;8.372;2024-03-08T10:55:16;9.80;99.20
14995;DHT22;7593;49.006;8.372;2024-03-08T10:57:43;9.90;99.60
14995;DHT22;7593;49.006;8.372;2024-03-08T11:00:11;9.90;99.50
14995;DHT22;7593;49.006;8.372;2024-03-08T11:02:39;10.30;98.80
14995;DHT22;7593;49.006;8.372;2024-03-08T11:05:11;10.40;98.10
14995;DHT22;7593;49.006;8.372;2024-03-08T11:07:43;10.30;98.10
14995;DHT22;7593;49.006;8.372;2024-03-08T11:10:19;10.20;98.20
14995;DHT22;7593;49.006;8.372;2024-03-08T11:12:47;10.30;98.60
14995;DHT22;7593;49.006;8.372;2024-03-08T11:15:14;10.20;98.20
14995;DHT22;7593;49.006;8.372;2024-03-08T11:17:47;10.30;98.40
14995;DHT22;7593;49.006;8.372;2024-03-08T11:20:16;10.60;98.40
14995;DHT22;7593;49.006;8.372;2024-03-08T11:22:49;10.90;98.10
14995;DHT22;7593;49.006;8.372;2024-03-08T11:25:35;11.00;97.40
14995;DHT22;7593;49.006;8.372;2024-03-08T11:28:09;11.10;97.40
14995;DHT22;7593;49.006;8.372;2024-03-08T11:30:36;11.40;97.40
14995;DHT22;7593;49.006;8.372;2024-03-08T11:33:04;11.60;96.80
14995;DHT22;7593;49.006;8.372;2024-03-08T11:35:30;11.70;97.00
14995;DHT22;7593;49.006;8.372;2024-03-08T11:37:59;11.80;96.40
14995;DHT22;7593;49.006;8.372;2024-03-08T11:40:27;11.80;96.10
14995;DHT22;7593;49.006;8.372;2024-03-08T11:42:54;11.70;96.40
14995;DHT22;7593;49.006;8.372;2024-03-08T11:45:21;11.60;96.30
14995;DHT22;7593;49.006;8.372;2024-03-08T11:47:48;11.90;96.30
14995;DHT22;7593;49.006;8.372;2024-03-08T11:50:15;12.00;96.30
14995;DHT22;7593;49.006;8.372;2024-03-08T11:52:44;11.80;96.50
14995;DHT22;7593;49.006;8.372;2024-03-08T11:55:12;11.80;96.10
14995;DHT22;7593;49.006;8.372;2024-03-08T11:57:39;11.60;96.50
14995;DHT22;7593;49.006;8.372;2024-03-08T12:00:15;11.80;96.30
14995;DHT22;7593;49.006;8.372;2024-03-08T12:03:01;12.00;96.20
14995;DHT22;7593;49.006;8.372;2024-03-08T12:05:28;11.90;96.30
14995;DHT22;7593;49.006;8.372;2024-03-08T12:07:57;11.80;96.20
14995;DHT22;7593;49.006;8.372;2024-03-08T12:10:25;12.00;95.80
14995;DHT22;7593;49.006;8.372;2024-03-08T12:12:53;12.00;95.70
14995;DHT22;7593;49.006;8.372;2024-03-08T12:15:22;11.90;96.30
14995;DHT22;7593;49.006;8.372;2024-03-08T12:17:50;11.90;95.40
14995;DHT22;7593;49.006;8.372;2024-03-08T12:20:19;11.70;95.80
14995;DHT22;7593;49.006;8.372;2024-03-08T12:22:47;11.90;95.40
14995;DHT22;7593;49.006;8.372;2024-03-08T12:25:15;12.00;95.30
14995;DHT22;7593;49.006;8.372;2024-03-08T12:27:43;12.10;95.60
14995;DHT22;7593;49.006;8.372;2024-03-08T12:30:19;12.10;95.40
14995;DHT22;7593;49.006;8.372;2024-03-08T12:32:54;12.20;95.30
14995;DHT22;7593;49.006;8.372;2024-03-08T12:35:24;12.40;95.30
14995;DHT22;7593;49.006;8.372;2024-03-08T12:37:53;12.60;95.20
14995;DHT22;7593;49.006;8.372;2024-03-08T12:40:25;12.60;94.60
14995;DHT22;7593;49.006;8.372;2024-03-08T12:42:55;12.10;95.10
14995;DHT22;7593;49.006;8.372;2024-03-08T12:45:22;12.10;95.80
14995;DHT22;7593;49.006;8.372;2024-03-08T12:47:50;12.40;95.80
14995;DHT22;7593;49.006;8.372;2024-03-08T12:50:17;12.50;95.00
14995;DHT22;7593;49.006;8.372;2024-03-08T12:52:44;12.50;94.90
14995;DHT22;7593;49.006;8.372;2024-03-08T12:55:10;12.00;95.30
14995;DHT22;7593;49.006;8.372;2024-03-08T12:57:38;11.90;95.90
14995;DHT22;7593;49.006;8.372;2024-03-08T13:00:07;11.60;95.70
14995;DHT22;7593;49.006;8.372;2024-03-08T13:02:38;11.60;96.10
14995;DHT22;7593;49.006;8.372;2024-03-08T13:05:06;11.80;95.90
14995;DHT22;7593;49.006;8.372;2024-03-08T13:07:35;12.10;95.50
14995;DHT22;7593;49.006;8.372;2024-03-08T13:10:03;12.20;95.20
14995;DHT22;7593;49.006;8.372;2024-03-08T13:12:30;12.30;95.10
14995;DHT22;7593;49.006;8.372;2024-03-08T13:14:57;12.30;94.90
14995;DHT22;7593;49.006;8.372;2024-03-08T13:17:25;12.50;94.80
14995;DHT22;7593;49.006;8.372;2024-03-08T13:19:52;12.50;94.80
14995;DHT22;7593;49.006;8.372;2024-03-08T13:22:22;12.70;94.60
14995;DHT22;7593;49.006;8.372;2024-03-08T13:24:50;12.80;94.10
14995;DHT22;7593;49.006;8.372;2024-03-08T13:27:17;12.90;94.50
14995;DHT22;7593;49.006;8.372;2024-03-08T13:29:46;12.90;94.30
14995;DHT22;7593;49.006;8.372;2024-03-08T13:32:14;13.20;94.00
14995;DHT22;7593;49.006;8.372;2024-03-08T13:34:43;13.20;93.70
14995;DHT22;7593;49.006;8.372;2024-03-08T13:37:10;13.30;94.00
14995;DHT22;7593;49.006;8.372;2024-03-08T13:39:37;13.60;93.50
14995;DHT22;7593;49.006;8.372;2024-03-08T13:42:14;13.70;93.10
14995;DHT22;7593;49.006;8.372;2024-03-08T13:44:45;13.70;93.10
14995;DHT22;7593;49.006;8.372;2024-03-08T13:47:13;13.40;93.30
14995;DHT22;7593;49.006;8.372;2024-03-08T13:49:39;13.30;93.70
14995;DHT22;7593;49.006;8.372;2024-03-08T13:52:08;13.30;93.60
14995;DHT22;7593;49.006;8.372;2024-03-08T13:54:34;13.10;93.60
14995;DHT22;7593;49.006;8.372;2024-03-08T13:57:02;13.00;93.90
14995;DHT22;7593;49.006;8.372;2024-03-08T13:59:29;13.00;94.20
14995;DHT22;7593;49.006;8.372;2024-03-08T14:01:58;13.30;93.90
14995;DHT22;7593;49.006;8.372;2024-03-08T14:04:27;13.50;93.30
14995;DHT22;7593;49.006;8.372;2024-03-08T14:06:53;13.70;93.60
14995;DHT22;7593;49.006;8.372;2024-03-08T14:09:24;14.00;93.30
14995;DHT22;7593;49.006;8.372;2024-03-08T14:11:52;14.10;92.60
14995;DHT22;7593;49.006;8.372;2024-03-08T14:14:20;14.50;92.70
14995;DHT22;7593;49.006;8.372;2024-03-08T14:16:48;14.90;91.90
14995;DHT22;7593;49.006;8.372;2024-03-08T14:19:18;15.10;91.50
14995;DHT22;7593;49.006;8.372;2024-03-08T14:21:45;15.00;91.30
14995;DHT22;7593;49.006;8.372;2024-03-08T14:24:13;14.90;91.20
14995;DHT22;7593;49.006;8.372;2024-03-08T14:26:42;14.60;91.20
14995;DHT22;7593;49.006;8.372;2024-03-08T14:29:09;14.70;91.40
14995;DHT22;7593;49.006;8.372;2024-03-08T14:31:36;14.80;91.60
14995;DHT22;7593;49.006;8.372;2024-03-08T14:34:03;14.70;91.40
14995;DHT22;7593;49.006;8.372;2024-03-08T14:36:30;14.80;91.40
14995;DHT22;7593;49.006;8.372;2024-03-08T14:38:57;15.00;90.70
14995;DHT22;7593;49.006;8.372;2024-03-08T14:41:24;14.70;91.00
14995;DHT22;7593;49.006;8.372;2024-03-08T14:43:53;14.40;91.30
14995;DHT22;7593;49.006;8.372;2024-03-08T14:46:20;14.20;91.70
14995;DHT22;7593;49.006;8.372;2024-03-08T14:48:49;14.10;91.20
14995;DHT22;7593;49.006;8.372;2024-03-08T14:51:17;14.20;91.60
14995;DHT22;7593;49.006;8.372;2024-03-08T14:53:47;14.40;91.40
14995;DHT22;7593;49.006;8.372;2024-03-08T14:56:15;14.70;91.10
14995;DHT22;7593;49.006;8.372;2024-03-08T14:58:42;14.60;91.00
14995;DHT22;7593;49.006;8.372;2024-03-08T15:01:10;14.70;91.40
14995;DHT22;7593;49.006;8.372;2024-03-08T15:03:39;15.00;90.90
14995;DHT22;7593;49.006;8.372;2024-03-08T15:06:06;15.40;90.40
14995;DHT22;7593;49.006;8.372;2024-03-08T15:08:35;15.50;89.70
14995;DHT22;7593;49.006;8.372;2024-03-08T15:11:02;15.40;89.80
14995;DHT22;7593;49.006;8.372;2024-03-08T15:13:29;15.40;89.60
14995;DHT22;7593;49.006;8.372;2024-03-08T15:16:06;15.50;89.10
14995;DHT22;7593;49.006;8.372;2024-03-08T15:18:35;15.40;89.40
14995;DHT22;7593;49.006;8.372;2024-03-08T15:21:04;15.70;89.30
14995;DHT22;7593;49.006;8.372;2024-03-08T15:23:33;15.80;88.60
14995;DHT22;7593;49.006;8.372;2024-03-08T15:26:00;15.70;87.90
14995;DHT22;7593;49.006;8.372;2024-03-08T15:28:27;15.40;88.30
14995;DHT22;7593;49.006;8.372;2024-03-08T15:31:02;15.30;88.70
14995;DHT22;7593;49.006;8.372;2024-03-08T15:33:33;15.20;89.00
14995;DHT22;7593;49.006;8.372;2024-03-08T15:36:00;15.10;89.70
14995;DHT22;7593;49.006;8.372;2024-03-08T15:38:33;14.90;89.80
14995;DHT22;7593;49.006;8.372;2024-03-08T15:40:59;14.70;89.80
14995;DHT22;7593;49.006;8.372;2024-03-08T15:43:26;14.70;90.40
14995;DHT22;7593;49.006;8.372;2024-03-08T15:45:53;14.50;90.30
14995;DHT22;7593;49.006;8.372;2024-03-08T15:48:20;14.40;90.30
14995;DHT22;7593;49.006;8.372;2024-03-08T15:50:49;14.20;90.80
14995;DHT22;7593;49.006;8.372;2024-03-08T15:53:16;14.00;90.90
14995;DHT22;7593;49.006;8.372;2024-03-08T15:55:44;13.90;91.30
14995;DHT22;7593;49.006;8.372;2024-03-08T15:58:12;13.80;91.30
14995;DHT22;7593;49.006;8.372;2024-03-08T16:00:38;13.70;91.40
14995;DHT22;7593;49.006;8.372;2024-03-08T16:03:12;13.50;91.80